Terminal Aerodrome Forecast
Issued by NWS

Home | Current Version | Previous Version | Text Only | Print | Product List | Glossary On
Versions: 1 2 3 4 5 6 7 8 9 10 11 12 13 14 15 16 17 18 19 20 21 22 23 24 25 26 27 28 29 30 31 32 33 34 35
108
FTUS44 KFWD 200307 AAB
TAFGKY
TAF AMD
KGKY 200307Z 2003/2024 17014G24KT P6SM VCSH BKN030 BKN060
      TEMPO 2003/2004 -RA BKN025
     FM200400 17017KT P6SM VCSH BKN025
     FM200600 17015G25KT P6SM VCSH OVC018
     FM200800 18014G24KT P6SM VCTS OVC015CB
      TEMPO 2009/2013 4SM TSRA BKN020 OVC050CB
     FM201400 18016KT P6SM VCSH OVC020
     FM201700 17015G25KT 6SM SHRA VCTS OVC025CB=

USA.gov is the U.S. government's official web portal to all federal, state and local government web resources and services.